Terminal Aerodrome Forecast
Issued by NWS Omaha/Valley, NE

Home | Current Version | Previous Version | Text Only | Print | Product List | Glossary Off
Versions: 1 2 3 4 5 6 7 8 9 10 11 12 13 14 15 16 17 18 19

000
FTUS43 KOAX 271200 AAA
TAFOFK
TAF AMD
KOFK 271200Z 2712/2812 12008KT P6SM SCT010 BKN090
      TEMPO 2712/2715 BKN015
     FM271700 05007KT P6SM BKN050
     FM280000 08004KT P6SM OVC100 PROB30 2800/2803 P6SM TS BKN040CB=

USA.gov is the U.S. government's official web portal to all federal, state and local government web resources and services.